Time;durP1;ratioP1;P1;durP2;ratioP2;P2;SDS_P1;SDS_P2;PMS_P1;PMS_P2;Temp;Humidity;BMP_temperature;BMP_pressure;BME280_temperature;BME280_humidity;BME280_pressure;Samples;Min_cycle;Max_cycle;Signal;HPM_P1;HPM_P2
2021/03/15 00:00:17;;;;;;;18.08;10.60;;;281.90;2278.40;;;;;;5139304;27;20031;-69
2021/03/15 00:02:44;;;;;;;16.20;8.93;;;281.80;2278.40;;;;;;5139451;27;20034;-68
2021/03/15 00:05:13;;;;;;;14.27;8.05;;;281.90;2278.40;;;;;;5138838;27;20027;-69
2021/03/15 00:07:40;;;;;;;15.18;9.32;;;281.90;2278.40;;;;;;5139734;27;20027;-68
2021/03/15 00:10:08;;;;;;;17.23;11.13;;;282.00;2278.40;;;;;;5136676;27;20027;-69
2021/03/15 00:12:34;;;;;;;15.98;9.50;;;282.10;2278.40;;;;;;5138761;27;20019;-68
2021/03/15 00:15:00;;;;;;;16.20;10.07;;;282.10;2278.40;;;;;;5139376;27;20034;-69
2021/03/15 00:17:26;;;;;;;16.27;9.60;;;282.10;2278.40;;;;;;5139122;27;20019;-69
2021/03/15 00:19:52;;;;;;;14.52;9.48;;;282.00;2278.40;;;;;;5138942;27;20094;-69
2021/03/15 00:22:18;;;;;;;15.07;10.07;;;282.00;2278.40;;;;;;5139019;27;20019;-68
2021/03/15 00:24:44;;;;;;;17.30;10.48;;;281.90;2278.40;;;;;;5139197;27;20019;-68
2021/03/15 00:27:10;;;;;;;21.42;13.02;;;281.60;2278.40;;;;;;5138936;27;20023;-69
2021/03/15 00:29:35;;;;;;;25.10;15.45;;;256.90;2252.80;;;;;;5139218;27;20042;-68
2021/03/15 00:32:02;;;;;;;27.00;17.35;;;256.70;2252.80;;;;;;5138990;27;20077;-68
2021/03/15 00:34:27;;;;;;;26.33;16.23;;;256.50;2252.80;;;;;;5138341;27;20338;-68
2021/03/15 00:36:55;;;;;;;26.48;16.83;;;256.40;2252.80;;;;;;5138681;27;20113;-68
2021/03/15 00:39:20;;;;;;;29.67;19.45;;;256.50;2252.80;;;;;;5139019;27;20027;-69
2021/03/15 00:41:46;;;;;;;35.08;20.15;;;256.30;2252.80;;;;;;5138291;27;20042;-68
2021/03/15 00:44:13;;;;;;;35.63;21.55;;;256.20;2252.80;;;;;;5138510;27;20030;-68
2021/03/15 00:46:38;;;;;;;34.35;20.80;;;256.00;2252.80;;;;;;5139439;27;20020;-68
2021/03/15 00:49:04;;;;;;;35.08;21.80;;;231.30;2252.80;;;;;;5139989;27;20027;-68
2021/03/15 00:51:30;;;;;;;37.63;21.63;;;231.30;2252.80;;;;;;5139560;27;20027;-68
2021/03/15 00:53:56;;;;;;;39.00;23.67;;;231.00;2252.80;;;;;;5139495;27;20101;-68
2021/03/15 00:56:21;;;;;;;38.78;24.77;;;230.70;2252.80;;;;;;5138648;27;20405;-68
2021/03/15 00:58:47;;;;;;;40.30;23.40;;;230.70;2252.80;;;;;;5139615;27;20123;-69
2021/03/15 01:01:18;;;;;;;44.08;24.83;;;230.70;2252.80;;;;;;5139708;27;20072;-68
2021/03/15 01:03:44;;;;;;;38.38;22.75;;;230.60;2252.80;;;;;;5139699;27;20018;-69
2021/03/15 01:06:12;;;;;;;41.47;23.27;;;230.60;2252.80;;;;;;5139600;27;20053;-68
2021/03/15 01:08:39;;;;;;;41.38;24.65;;;230.60;2252.80;;;;;;5139576;27;20023;-68
2021/03/15 01:11:05;;;;;;;46.55;26.40;;;230.50;2252.80;;;;;;5139663;27;20054;-68
2021/03/15 01:13:31;;;;;;;39.58;25.67;;;230.50;2252.80;;;;;;5138752;27;20063;-68
2021/03/15 01:15:56;;;;;;;44.42;26.15;;;230.50;2252.80;;;;;;5139439;27;20023;-68
2021/03/15 01:18:22;;;;;;;48.88;28.10;;;230.60;2252.80;;;;;;5139614;27;20027;-68
2021/03/15 01:20:48;;;;;;;43.00;24.98;;;230.60;2252.80;;;;;;5139023;27;20019;-69
2021/03/15 01:23:14;;;;;;;35.10;23.33;;;230.60;2252.80;;;;;;5138697;27;20031;-69
2021/03/15 01:25:41;;;;;;;32.42;20.75;;;230.60;2252.80;;;;;;5139088;27;20023;-68
2021/03/15 01:28:10;;;;;;;30.67;19.05;;;230.70;2252.80;;;;;;5139109;27;20023;-68
2021/03/15 01:30:37;;;;;;;27.40;17.30;;;230.90;2252.80;;;;;;5138649;27;20329;-68
2021/03/15 01:33:04;;;;;;;32.13;21.40;;;230.90;2252.80;;;;;;5138708;27;20033;-68
2021/03/15 01:35:31;;;;;;;37.60;22.40;;;230.80;2252.80;;;;;;5138571;27;20440;-68
2021/03/15 01:37:56;;;;;;;34.22;21.13;;;230.70;2252.80;;;;;;5138960;27;20035;-68
2021/03/15 01:40:23;;;;;;;33.63;17.92;;;230.90;2252.80;;;;;;5138883;27;20029;-68
2021/03/15 01:42:50;;;;;;;18.77;12.57;;;230.90;2252.80;;;;;;5138927;27;20385;-68
2021/03/15 01:45:16;;;;;;;16.42;10.68;;;230.90;2252.80;;;;;;5138432;27;20031;-68
2021/03/15 01:47:43;;;;;;;11.65;8.20;;;230.90;2252.80;;;;;;5139082;27;20102;-68
2021/03/15 01:50:11;;;;;;;11.35;6.35;;;230.90;2252.80;;;;;;5137809;27;20079;-68
2021/03/15 01:52:39;;;;;;;11.05;5.00;;;230.90;2252.80;;;;;;5138405;27;20051;-68
2021/03/15 01:55:08;;;;;;;9.90;6.07;;;230.90;2252.80;;;;;;5139004;27;20084;-68
2021/03/15 01:57:34;;;;;;;14.30;8.63;;;230.90;2252.80;;;;;;5138684;27;20023;-69
2021/03/15 02:00:01;;;;;;;19.48;12.80;;;231.10;2252.80;;;;;;5138384;27;20027;-67
2021/03/15 02:02:28;;;;;;;20.08;12.85;;;231.10;2252.80;;;;;;5138766;27;20027;-68
2021/03/15 02:04:53;;;;;;;24.38;13.60;;;231.00;2252.80;;;;;;5138031;27;20026;-68
2021/03/15 02:07:20;;;;;;;27.80;17.73;;;231.00;2252.80;;;;;;5138279;27;20019;-68
2021/03/15 02:09:46;;;;;;;32.35;18.67;;;231.10;2252.80;;;;;;5138417;27;20033;-68
2021/03/15 02:12:21;;;;;;;31.20;20.10;;;231.10;2252.80;;;;;;5138391;27;20027;-68
2021/03/15 02:15:05;;;;;;;32.78;21.13;;;231.10;2252.80;;;;;;5138753;27;20126;-68
2021/03/15 02:17:43;;;;;;;33.80;20.83;;;231.30;2252.80;;;;;;5138421;27;20119;-68
2021/03/15 02:20:20;;;;;;;34.10;21.65;;;231.30;2252.80;;;;;;5138107;27;20030;-68
2021/03/15 02:22:57;;;;;;;33.08;20.88;;;256.00;2252.80;;;;;;5138672;27;20031;-68
2021/03/15 02:25:52;;;;;;;33.50;22.27;;;230.90;2252.80;;;;;;5137831;27;20042;-68
2021/03/15 02:28:35;;;;;;;39.08;22.90;;;230.60;2252.80;;;;;;5138397;27;20031;-68
2021/03/15 02:31:32;;;;;;;52.67;30.70;;;230.80;2252.80;;;;;;5138163;28;20413;-68
2021/03/15 02:34:45;;;;;;;61.03;32.67;;;230.70;2252.80;;;;;;5137937;28;20023;-68
2021/03/15 02:37:14;;;;;;;72.25;35.38;;;230.60;2252.80;;;;;;5035043;28;20042;-68
2021/03/15 02:39:44;;;;;;;72.45;36.20;;;230.50;2252.80;;;;;;5034731;28;20022;-68
2021/03/15 02:42:14;;;;;;;73.80;35.33;;;230.40;2252.80;;;;;;5034752;28;20041;-68
2021/03/15 02:44:45;;;;;;;78.40;37.05;;;205.70;2252.80;;;;;;5034460;28;20034;-67
2021/03/15 02:47:14;;;;;;;78.05;38.72;;;205.70;2252.80;;;;;;5034085;28;20034;-68
2021/03/15 02:49:42;;;;;;;68.23;35.10;;;205.70;2252.80;;;;;;5034964;28;20567;-68
2021/03/15 02:52:10;;;;;;;76.13;38.10;;;205.60;2252.80;;;;;;5034600;28;20025;-69
2021/03/15 07:03:43;;;;;;;6.13;4.22;;;103.00;2227.20;;;;;;5153673;27;20435;-70
2021/03/15 07:06:09;;;;;;;6.55;4.45;;;103.30;2227.20;;;;;;5156029;27;20073;-70
2021/03/15 07:08:36;;;;;;;6.90;4.38;;;103.30;2227.20;;;;;;5155988;27;20027;-72
2021/03/15 07:11:02;;;;;;;7.05;4.60;;;103.10;2227.20;;;;;;5156226;27;20030;-71
2021/03/15 07:13:34;;;;;;;6.22;4.18;;;103.10;2227.20;;;;;;5155634;27;20066;-71
2021/03/15 07:16:01;;;;;;;6.68;3.97;;;103.00;2227.20;;;;;;5155733;27;20027;-71
2021/03/15 07:18:34;;;;;;;6.50;4.32;;;103.00;2227.20;;;;;;5155769;27;20123;-71
2021/03/15 07:21:05;;;;;;;6.70;4.05;;;102.90;2227.20;;;;;;5156126;27;20026;-71
2021/03/15 07:23:43;;;;;;;5.53;3.72;;;103.00;2227.20;;;;;;5155816;27;20019;-71
2021/03/15 07:26:26;;;;;;;5.32;3.90;;;103.00;2227.20;;;;;;5156040;27;20027;-72
2021/03/15 07:28:53;;;;;;;6.15;4.10;;;102.90;2227.20;;;;;;5155167;27;20026;-71
2021/03/15 07:31:32;;;;;;;7.18;4.68;;;102.80;2227.20;;;;;;5155528;27;20023;-70
2021/03/15 07:33:58;;;;;;;5.70;4.38;;;102.70;2227.20;;;;;;5155683;27;20032;-71
2021/03/15 07:36:43;;;;;;;6.03;4.22;;;102.80;2227.20;;;;;;5154669;27;20448;-71
2021/03/15 07:39:09;;;;;;;5.93;4.10;;;102.80;2227.20;;;;;;5155201;27;20022;-71
2021/03/15 07:41:39;;;;;;;6.07;4.53;;;102.60;2227.20;;;;;;5149913;27;20420;-71
2021/03/15 07:44:22;;;;;;;6.18;4.43;;;102.70;2227.20;;;;;;5154108;27;20019;-71
2021/03/15 07:46:52;;;;;;;7.97;5.43;;;102.70;2227.20;;;;;;5165745;27;20057;-71
2021/03/15 07:49:41;;;;;;;6.90;4.53;;;102.80;2227.20;;;;;;5174308;27;20034;-71
2021/03/15 07:52:12;;;;;;;6.47;4.68;;;102.90;2227.20;;;;;;5174284;27;20083;-70
2021/03/15 07:54:44;;;;;;;7.93;5.15;;;102.90;2227.20;;;;;;5174129;27;20034;-74
2021/03/15 07:57:23;;;;;;;6.55;4.97;;;103.00;2227.20;;;;;;5175648;27;20024;-72
2021/03/15 07:59:54;;;;;;;7.88;5.00;;;103.00;2227.20;;;;;;5156537;27;20042;-72
2021/03/15 08:02:28;;;;;;;9.20;6.00;;;102.90;2227.20;;;;;;5154331;27;20348;-74
2021/03/15 08:04:57;;;;;;;9.65;5.88;;;102.90;2227.20;;;;;;5139815;27;20030;-73
2021/03/15 08:07:25;;;;;;;7.43;5.45;;;102.80;2227.20;;;;;;5140975;27;20071;-74
2021/03/15 08:10:00;;;;;;;8.30;5.75;;;102.80;2227.20;;;;;;5140520;27;20038;-74
2021/03/15 08:12:37;;;;;;;8.18;5.55;;;102.90;2227.20;;;;;;5139539;27;20027;-73
2021/03/15 08:15:08;;;;;;;6.55;5.13;;;102.70;2227.20;;;;;;5140890;27;20035;-73
2021/03/15 08:17:41;;;;;;;7.65;5.32;;;102.60;2227.20;;;;;;5140636;27;20428;-74
2021/03/15 08:20:07;;;;;;;6.28;4.72;;;102.60;2227.20;;;;;;5140526;27;20071;-73
2021/03/15 08:22:38;;;;;;;7.50;5.50;;;102.60;2227.20;;;;;;5140928;27;20033;-74
2021/03/15 08:25:07;;;;;;;7.97;5.97;;;102.50;2227.20;;;;;;5140031;27;20023;-73
2021/03/15 08:27:38;;;;;;;7.13;5.32;;;102.50;2227.20;;;;;;5140826;27;20034;-74
2021/03/15 08:30:08;;;;;;;7.72;5.85;;;102.50;2227.20;;;;;;5140159;27;20432;-73
2021/03/15 08:32:37;;;;;;;8.05;5.88;;;102.50;2227.20;;;;;;5138361;27;20038;-74
2021/03/15 08:35:07;;;;;;;8.55;5.75;;;102.50;2227.20;;;;;;5147088;27;20117;-74
2021/03/15 08:37:52;;;;;;;10.52;7.00;;;102.40;2227.20;;;;;;5160648;27;20535;-74
2021/03/15 08:40:40;;;;;;;7.63;5.55;;;102.40;2227.20;;;;;;5160791;27;20029;-73
2021/03/15 08:43:18;;;;;;;7.88;5.32;;;102.40;2227.20;;;;;;5161027;27;20175;-73
2021/03/15 08:45:47;;;;;;;7.25;4.97;;;102.40;2227.20;;;;;;5159934;27;20034;-73
2021/03/15 08:48:13;;;;;;;;;;;102.40;2227.20;;;;;;5161326;27;20107;-72
2021/03/15 08:50:41;;;;;;;7.22;5.28;;;102.40;2227.20;;;;;;5160735;27;19903;-74
2021/03/15 08:53:08;;;;;;;7.63;5.57;;;102.50;2227.20;;;;;;5160386;27;20063;-72
2021/03/15 08:55:52;;;;;;;7.65;5.72;;;102.50;2227.20;;;;;;5140626;27;20478;-74
2021/03/15 08:58:36;;;;;;;8.05;5.65;;;102.60;2227.20;;;;;;5140431;27;20034;-74
2021/03/15 09:01:05;;;;;;;7.88;5.55;;;102.50;2227.20;;;;;;5139637;27;20045;-75
2021/03/15 09:03:50;;;;;;;8.43;5.18;;;102.50;2227.20;;;;;;5139926;27;20431;-74
2021/03/15 09:06:36;;;;;;;8.10;5.90;;;102.50;2227.20;;;;;;5139529;27;20317;-74
2021/03/15 09:09:21;;;;;;;7.95;5.18;;;102.50;2227.20;;;;;;5139815;27;20033;-74
2021/03/15 09:11:51;;;;;;;8.15;6.07;;;102.60;2227.20;;;;;;5139494;27;20336;-74
2021/03/15 09:14:17;;;;;;;7.07;4.82;;;102.60;2227.20;;;;;;5139374;27;20031;-74
2021/03/15 09:16:48;;;;;;;6.70;4.72;;;102.70;2227.20;;;;;;5138839;27;20122;-73
2021/03/15 09:19:34;;;;;;;6.93;4.78;;;102.70;2227.20;;;;;;5139168;27;20027;-74
2021/03/15 09:33:25;;;;;;;7.57;5.40;;;103.00;2227.20;;;;;;5155883;27;20386;-73
2021/03/15 09:35:51;;;;;;;5.40;4.13;;;128.00;2252.80;;;;;;5156467;27;20043;-73
2021/03/15 09:38:17;;;;;;;8.02;4.30;;;103.30;2227.20;;;;;;5155518;27;20029;-73
2021/03/15 09:40:46;;;;;;;8.65;5.07;;;103.30;2227.20;;;;;;5155793;27;20022;-73
2021/03/15 09:43:25;;;;;;;6.90;4.78;;;103.20;2227.20;;;;;;5155474;27;20023;-73
2021/03/15 09:45:56;;;;;;;8.20;5.63;;;103.10;2227.20;;;;;;5155535;27;20033;-73
2021/03/15 09:48:23;;;;;;;8.82;5.13;;;103.00;2227.20;;;;;;5155795;27;20027;-73
2021/03/15 09:50:50;;;;;;;7.60;4.85;;;103.20;2227.20;;;;;;5155817;27;20019;-73
2021/03/15 09:53:17;;;;;;;6.72;4.30;;;103.20;2227.20;;;;;;5154328;27;20328;-72
2021/03/15 09:55:43;;;;;;;8.52;5.20;;;103.10;2227.20;;;;;;5154262;27;20087;-72
2021/03/15 09:58:13;;;;;;;10.00;5.03;;;103.10;2227.20;;;;;;5154384;27;20032;-72
2021/03/15 10:00:39;;;;;;;8.82;5.53;;;103.10;2227.20;;;;;;5153333;27;20159;-72
2021/03/15 10:03:05;;;;;;;10.25;6.47;;;103.10;2227.20;;;;;;5153097;27;20038;-73
2021/03/15 10:29:03;;;;;;;12.13;7.85;;;128.70;2252.80;;;;;;5883911;22;923555;-72
2021/03/15 10:31:29;;;;;;;9.48;6.40;;;128.80;2252.80;;;;;;6160574;22;20005;-73
2021/03/15 10:33:55;;;;;;;9.90;6.88;;;128.50;2252.80;;;;;;6157936;23;19997;-73
2021/03/15 10:36:22;;;;;;;8.18;5.22;;;128.40;2252.80;;;;;;6159883;22;20411;-74
